createdAt,value
2022-10-14T00:00:42.123Z,0.95
2022-10-14T00:03:08.630Z,0.70
2022-10-14T00:05:34.964Z,0.90
2022-10-14T00:08:01.389Z,0.88
2022-10-14T00:10:28.187Z,0.75
2022-10-14T00:12:54.665Z,0.70
2022-10-14T00:15:20.969Z,0.70
2022-10-14T00:17:47.407Z,0.80
2022-10-14T00:20:13.717Z,0.70
2022-10-14T00:22:40.055Z,0.90
2022-10-14T00:25:06.527Z,0.90
2022-10-14T00:27:32.893Z,0.70
2022-10-14T00:29:59.197Z,0.90
2022-10-14T00:32:25.576Z,0.80
2022-10-14T00:34:51.891Z,0.90
2022-10-14T00:37:18.242Z,0.82
2022-10-14T00:39:44.616Z,0.70
2022-10-14T00:42:15.359Z,0.73
2022-10-14T00:44:44.711Z,0.85
2022-10-14T00:47:11.691Z,0.85
2022-10-14T00:49:42.402Z,0.98
2022-10-14T00:52:15.767Z,0.75
2022-10-14T00:54:47.476Z,0.80
2022-10-14T00:57:14.539Z,0.80
2022-10-14T00:59:41.176Z,0.80
2022-10-14T01:02:07.563Z,1.08
2022-10-14T01:04:37.796Z,0.98
2022-10-14T01:07:26.472Z,0.80
2022-10-14T01:10:15.136Z,1.10
2022-10-14T01:13:02.982Z,1.15
2022-10-14T01:15:37.908Z,0.98
2022-10-14T01:18:25.294Z,0.95
2022-10-14T01:21:06.803Z,0.80
2022-10-14T01:23:42.154Z,0.80
2022-10-14T01:26:27.357Z,1.25
2022-10-14T01:29:27.548Z,0.90
2022-10-14T01:32:03.750Z,0.60
2022-10-14T01:34:45.364Z,0.87
2022-10-14T01:37:16.913Z,0.57
2022-10-14T01:39:47.911Z,0.85
2022-10-14T01:42:22.371Z,1.08
2022-10-14T01:44:54.812Z,0.90
2022-10-14T01:47:21.518Z,0.83
2022-10-14T01:49:55.102Z,0.82
2022-10-14T01:52:27.688Z,0.95
2022-10-14T01:54:58.388Z,1.80
2022-10-14T01:57:29.316Z,0.90
2022-10-14T01:59:56.527Z,0.90
2022-10-14T02:02:24.660Z,0.80
2022-10-14T02:04:51.676Z,0.70
2022-10-14T02:07:37.936Z,0.70
2022-10-14T02:10:20.624Z,0.68
2022-10-14T02:13:21.173Z,0.80
2022-10-14T02:16:03.623Z,0.82
2022-10-14T02:18:39.104Z,0.68
2022-10-14T02:21:24.400Z,0.75
2022-10-14T02:23:58.118Z,0.65
2022-10-14T02:26:26.944Z,0.80
2022-10-14T02:28:56.590Z,0.70
2022-10-14T02:31:24.279Z,0.93
2022-10-14T02:33:55.721Z,0.88
2022-10-14T02:36:24.281Z,0.70
2022-10-14T02:38:52.891Z,0.80
2022-10-14T02:41:22.747Z,0.57
2022-10-14T02:43:49.106Z,0.80
2022-10-14T02:46:19.776Z,0.68
2022-10-14T02:48:46.132Z,0.70
2022-10-14T02:51:12.447Z,0.70
2022-10-14T02:53:38.822Z,0.90
2022-10-14T02:56:05.384Z,0.77
2022-10-14T02:58:32.017Z,0.70
2022-10-14T03:00:58.396Z,0.93
2022-10-14T03:03:24.743Z,0.70
2022-10-14T03:05:51.095Z,0.60
2022-10-14T03:08:17.646Z,0.77
2022-10-14T03:10:47.896Z,1.02
2022-10-14T03:13:14.818Z,0.82
2022-10-14T03:15:41.364Z,0.70
2022-10-14T03:18:07.772Z,1.02
2022-10-14T03:20:34.196Z,0.82
2022-10-14T03:23:00.488Z,0.80
2022-10-14T03:25:27.898Z,0.75
2022-10-14T03:27:54.224Z,0.60
2022-10-14T03:30:20.572Z,0.90
2022-10-14T03:32:46.877Z,0.70
2022-10-14T03:35:13.239Z,0.90
2022-10-14T03:37:39.545Z,0.90
2022-10-14T03:40:06.468Z,0.87
2022-10-14T03:42:32.829Z,0.85
2022-10-14T03:44:59.203Z,0.63
2022-10-14T03:47:25.506Z,0.93
2022-10-14T03:49:51.865Z,0.73
2022-10-14T03:52:18.518Z,0.90
2022-10-14T03:54:45.332Z,0.88
2022-10-14T03:57:11.634Z,0.82
2022-10-14T03:59:37.979Z,0.80
2022-10-14T04:02:04.326Z,1.08
2022-10-14T04:04:30.731Z,1.00
2022-10-14T04:06:57.749Z,0.68
2022-10-14T04:09:24.363Z,0.90
2022-10-14T04:11:50.727Z,1.20
2022-10-14T04:14:17.048Z,0.70
2022-10-14T04:16:48.905Z,0.80
2022-10-14T04:19:16.321Z,0.93
2022-10-14T04:21:42.680Z,0.98
2022-10-14T04:24:08.970Z,0.82
2022-10-14T04:26:35.288Z,1.17
2022-10-14T04:29:01.756Z,1.07
2022-10-14T04:31:28.147Z,1.00
2022-10-14T04:33:54.458Z,0.85
2022-10-14T04:36:20.827Z,0.88
2022-10-14T04:38:47.155Z,1.23
2022-10-14T04:41:13.495Z,1.00
2022-10-14T04:43:39.792Z,1.10
2022-10-14T04:46:06.094Z,1.23
2022-10-14T04:48:32.383Z,1.13
2022-10-14T04:50:58.688Z,1.00
2022-10-14T04:53:25.000Z,1.17
2022-10-14T04:55:51.702Z,1.00
2022-10-14T04:58:18.515Z,1.15
2022-10-14T05:00:44.834Z,0.82
2022-10-14T05:03:11.400Z,1.00
2022-10-14T05:05:37.812Z,1.40
2022-10-14T05:08:04.449Z,1.05
2022-10-14T05:10:31.315Z,1.02
2022-10-14T05:12:57.619Z,1.50
2022-10-14T05:15:23.964Z,1.10
2022-10-14T05:17:50.324Z,1.30
2022-10-14T05:20:16.723Z,1.35
2022-10-14T05:22:45.347Z,1.35
2022-10-14T05:25:11.830Z,1.17
2022-10-14T05:27:38.181Z,1.50
2022-10-14T05:30:04.972Z,1.20
2022-10-14T05:32:31.334Z,1.40
2022-10-14T05:34:57.912Z,1.50
2022-10-14T05:37:24.260Z,1.60
2022-10-14T05:39:50.607Z,1.20
2022-10-14T05:42:16.931Z,1.27
2022-10-14T05:44:43.263Z,1.42
2022-10-14T05:47:10.739Z,1.60
2022-10-14T05:49:37.059Z,1.65
2022-10-14T05:52:03.648Z,1.25
2022-10-14T05:54:29.962Z,1.80
2022-10-14T05:56:56.722Z,1.38
2022-10-14T05:59:23.052Z,1.70
2022-10-14T06:01:49.359Z,1.42
2022-10-14T06:04:20.433Z,1.63
2022-10-14T06:06:46.984Z,1.47
2022-10-14T06:09:13.384Z,1.42
2022-10-14T06:11:39.701Z,1.60
2022-10-14T06:14:06.129Z,1.30
2022-10-14T06:16:32.468Z,1.48
2022-10-14T06:18:58.799Z,1.53
2022-10-14T06:21:26.073Z,1.20
2022-10-14T06:23:52.435Z,1.63
2022-10-14T06:26:18.756Z,1.50
2022-10-14T06:28:45.316Z,1.20
2022-10-14T06:31:12.119Z,1.67
2022-10-14T06:33:38.802Z,1.40
2022-10-14T06:36:06.887Z,1.35
2022-10-14T06:38:33.209Z,1.98
2022-10-14T06:40:59.550Z,1.40
2022-10-14T06:43:25.859Z,1.57
2022-10-14T06:45:52.713Z,1.67
2022-10-14T06:48:19.021Z,1.30
2022-10-14T06:50:45.498Z,1.90
2022-10-14T06:53:11.804Z,1.27
2022-10-14T06:55:38.105Z,1.60
2022-10-14T06:58:04.400Z,1.70
2022-10-14T07:00:30.929Z,1.42
2022-10-14T07:02:59.271Z,1.35
2022-10-14T07:05:26.528Z,1.85
2022-10-14T07:07:52.873Z,1.60
2022-10-14T07:10:19.364Z,1.27
2022-10-14T07:12:45.726Z,1.50
2022-10-14T07:15:12.039Z,1.67
2022-10-14T07:17:38.619Z,1.50
2022-10-14T07:20:05.402Z,1.20
2022-10-14T07:22:35.088Z,1.20
2022-10-14T07:25:05.289Z,1.20
2022-10-14T07:27:31.591Z,1.20
2022-10-14T07:29:57.908Z,1.25
2022-10-14T07:32:24.225Z,1.10
2022-10-14T07:34:51.652Z,1.40
2022-10-14T07:37:18.036Z,1.73
2022-10-14T07:39:44.478Z,1.20
2022-10-14T07:42:10.882Z,1.20
2022-10-14T07:44:39.635Z,1.10
2022-10-14T07:47:06.636Z,1.05
2022-10-14T07:49:33.306Z,1.00
2022-10-14T07:51:59.619Z,1.10
2022-10-14T07:54:26.696Z,1.17
2022-10-14T07:56:53.120Z,1.33
2022-10-14T07:59:20.899Z,1.10
2022-10-14T08:01:48.409Z,0.90
2022-10-14T08:04:14.821Z,0.93
2022-10-14T08:06:41.167Z,0.90
2022-10-14T08:09:09.513Z,0.90
2022-10-14T08:11:36.231Z,1.00
2022-10-14T08:14:02.583Z,1.15
2022-10-14T08:16:31.735Z,0.93
2022-10-14T08:19:01.793Z,1.02
2022-10-14T08:21:28.421Z,1.10
2022-10-14T08:23:54.980Z,1.10
2022-10-14T08:26:34.914Z,0.95
2022-10-14T08:29:03.739Z,1.48
2022-10-14T08:31:30.628Z,1.05
2022-10-14T08:33:57.343Z,1.20
2022-10-14T08:36:24.557Z,0.80
2022-10-14T08:38:53.988Z,1.60
2022-10-14T08:41:51.171Z,1.10
2022-10-14T08:44:23.200Z,1.30
2022-10-14T08:46:56.129Z,1.63
2022-10-14T08:49:40.592Z,1.20
2022-10-14T08:52:25.495Z,1.30
2022-10-14T08:55:00.763Z,1.25
2022-10-14T08:57:31.807Z,1.98
2022-10-14T08:59:58.140Z,1.20
2022-10-14T09:02:38.013Z,1.00
2022-10-14T09:05:05.450Z,1.27
2022-10-14T09:07:35.287Z,1.10
2022-10-14T09:10:11.523Z,1.05
2022-10-14T09:12:39.517Z,1.13
2022-10-14T09:15:32.405Z,1.02
2022-10-14T09:18:06.653Z,1.15
2022-10-14T09:20:33.151Z,1.00
2022-10-14T09:23:05.787Z,0.98
2022-10-14T09:25:38.768Z,1.27
2022-10-14T09:28:05.111Z,0.88
2022-10-14T09:30:37.844Z,1.30
2022-10-14T09:33:05.468Z,1.48
2022-10-14T09:35:40.786Z,1.20
2022-10-14T09:38:08.163Z,0.93
2022-10-14T09:40:42.559Z,1.10
2022-10-14T09:43:08.797Z,1.15
2022-10-14T09:45:47.292Z,1.20
2022-10-14T09:48:46.704Z,0.98
2022-10-14T09:51:28.096Z,1.17
2022-10-14T09:53:56.732Z,1.00
2022-10-14T09:56:36.252Z,1.00
2022-10-14T09:59:21.083Z,0.95
2022-10-14T10:01:53.461Z,0.82
2022-10-14T10:04:33.967Z,1.00
2022-10-14T10:07:06.665Z,1.20
2022-10-14T10:09:33.745Z,1.15
2022-10-14T10:12:00.299Z,1.20
2022-10-14T10:14:30.578Z,1.25
2022-10-14T10:17:09.734Z,1.07
2022-10-14T10:19:38.497Z,0.90
2022-10-14T10:24:47.221Z,1.20
2022-10-14T10:27:35.311Z,0.95
2022-10-14T10:30:37.147Z,0.97
2022-10-14T10:33:16.199Z,1.02
2022-10-14T10:35:57.541Z,0.82
2022-10-14T10:38:27.697Z,0.80
2022-10-14T10:41:04.046Z,1.83
2022-10-14T10:43:45.784Z,0.83
2022-10-14T10:46:56.034Z,1.10
2022-10-14T10:50:13.407Z,0.88
2022-10-14T10:53:03.953Z,0.98
2022-10-14T10:58:55.037Z,0.93
2022-10-14T11:01:36.801Z,1.30
2022-10-14T11:04:15.233Z,0.90
2022-10-14T11:07:09.037Z,0.75
2022-10-14T11:10:08.110Z,1.00
2022-10-14T11:12:52.283Z,0.83
2022-10-14T11:15:34.969Z,0.80
2022-10-14T11:18:24.724Z,0.85
2022-10-14T11:20:51.073Z,0.90
2022-10-14T11:23:32.120Z,1.02
2022-10-14T11:26:07.221Z,0.90
2022-10-14T11:28:51.779Z,0.80
2022-10-14T11:31:51.829Z,0.70
2022-10-14T11:34:36.436Z,0.90
2022-10-14T11:37:24.983Z,0.90
2022-10-14T11:39:59.008Z,0.90
2022-10-14T11:42:35.107Z,0.70
2022-10-14T11:45:46.752Z,0.90
2022-10-14T11:48:43.888Z,1.10
2022-10-14T11:51:26.611Z,0.68
2022-10-14T11:54:00.814Z,0.50
2022-10-14T11:56:42.752Z,0.80
2022-10-14T11:59:33.714Z,0.82
2022-10-14T12:02:14.184Z,0.57
2022-10-14T12:04:45.358Z,0.60
2022-10-14T12:07:23.578Z,0.90
2022-10-14T12:10:14.005Z,0.80
2022-10-14T12:12:41.515Z,0.70
2022-10-14T12:15:17.127Z,0.90
2022-10-14T12:17:49.694Z,0.60
2022-10-14T12:20:25.991Z,0.70
2022-10-14T12:22:54.838Z,0.80
2022-10-14T12:25:24.443Z,0.80
2022-10-14T12:27:52.151Z,0.65
2022-10-14T12:30:36.060Z,0.82
2022-10-14T12:33:14.083Z,0.67
2022-10-14T12:35:58.991Z,0.60
2022-10-14T12:38:29.904Z,0.50
2022-10-14T12:41:54.565Z,0.55
2022-10-14T12:44:23.474Z,0.40
2022-10-14T12:46:52.806Z,0.80
2022-10-14T12:49:36.344Z,0.60
2022-10-14T12:52:06.056Z,0.82
2022-10-14T12:54:36.702Z,0.77
2022-10-14T12:57:04.927Z,0.40
2022-10-14T12:59:38.032Z,0.60
2022-10-14T13:02:35.055Z,0.68
2022-10-14T13:05:21.907Z,0.60
2022-10-14T13:08:11.440Z,0.73
2022-10-14T13:10:41.652Z,0.50
2022-10-14T13:13:39.994Z,0.63
2022-10-14T13:16:10.936Z,0.52
2022-10-14T13:18:49.004Z,0.80
2022-10-14T13:21:33.597Z,0.70
2022-10-14T13:24:17.813Z,0.85
2022-10-14T13:26:58.927Z,0.60
2022-10-14T13:29:40.537Z,1.33
2022-10-14T13:32:27.272Z,0.50
2022-10-14T13:34:59.278Z,0.60
2022-10-14T13:37:34.703Z,0.40
2022-10-14T13:40:24.354Z,0.77
2022-10-14T13:43:06.023Z,0.70
2022-10-14T13:45:38.379Z,0.65
2022-10-14T13:48:35.647Z,0.82
2022-10-14T13:51:35.153Z,0.50
2022-10-14T13:54:16.038Z,0.60
2022-10-14T13:56:43.325Z,0.60
2022-10-14T13:59:43.216Z,0.57
2022-10-14T14:02:15.447Z,1.08
2022-10-14T14:04:48.008Z,0.50
2022-10-14T14:07:47.787Z,0.50
2022-10-14T14:10:08.067Z,0.80
2022-10-14T14:12:34.477Z,0.32
2022-10-14T14:15:01.080Z,0.50
2022-10-14T14:17:31.064Z,0.70
2022-10-14T14:19:57.969Z,0.90
2022-10-14T14:22:29.719Z,0.50
2022-10-14T14:25:36.993Z,0.50
2022-10-14T14:28:06.882Z,0.80
2022-10-14T14:30:38.723Z,0.80
2022-10-14T14:33:11.709Z,0.50
2022-10-14T14:35:38.171Z,0.63
2022-10-14T14:38:04.555Z,0.52
2022-10-14T14:40:31.561Z,0.60
2022-10-14T14:43:00.387Z,0.50
2022-10-14T14:45:43.138Z,0.50
2022-10-14T14:48:15.413Z,0.40
2022-10-14T14:50:44.415Z,0.50
2022-10-14T14:53:13.958Z,0.60
2022-10-14T14:55:45.351Z,0.40
2022-10-14T14:58:32.863Z,0.70
2022-10-14T15:00:59.559Z,0.93
2022-10-14T15:03:28.943Z,0.50
2022-10-14T15:06:01.007Z,0.57
2022-10-14T15:08:34.359Z,0.60
2022-10-14T15:11:01.584Z,0.97
2022-10-14T15:13:29.861Z,0.60
2022-10-14T15:15:56.587Z,0.63
2022-10-14T15:18:28.053Z,0.50
2022-10-14T15:21:09.311Z,0.52
2022-10-14T15:23:52.719Z,0.70
2022-10-14T15:26:27.839Z,0.40
2022-10-14T15:29:15.688Z,0.85
2022-10-14T15:32:02.288Z,0.57
2022-10-14T15:34:28.723Z,0.60
2022-10-14T15:36:55.211Z,0.73
2022-10-14T15:39:22.150Z,0.60
2022-10-14T15:41:48.603Z,0.68
2022-10-14T15:44:15.152Z,0.60
2022-10-14T15:47:02.639Z,0.73
2022-10-14T15:49:33.348Z,0.60
2022-10-14T15:51:59.706Z,0.75
2022-10-14T15:54:27.545Z,0.70
2022-10-14T15:56:57.944Z,0.98
2022-10-14T15:59:24.774Z,0.60
2022-10-14T16:01:52.077Z,0.70
2022-10-14T16:04:22.366Z,0.70
2022-10-14T16:06:49.908Z,0.75
2022-10-14T16:09:16.283Z,0.75
2022-10-14T16:11:42.862Z,0.52
2022-10-14T16:14:12.464Z,0.90
2022-10-14T16:16:46.127Z,0.90
2022-10-14T16:19:12.897Z,1.55
2022-10-14T16:21:40.194Z,5.07
2022-10-14T16:24:08.029Z,8.18
2022-10-14T16:26:34.450Z,9.50
2022-10-14T16:29:03.116Z,9.48
2022-10-14T16:31:29.479Z,10.75
2022-10-14T16:33:55.850Z,10.15
2022-10-14T16:36:23.218Z,8.65
2022-10-14T16:38:49.962Z,6.57
2022-10-14T16:41:16.430Z,8.00
2022-10-14T16:43:42.785Z,7.70
2022-10-14T16:46:13.195Z,7.53
2022-10-14T16:48:41.756Z,6.65
2022-10-14T16:51:08.137Z,6.77
2022-10-14T16:53:48.876Z,6.00
2022-10-14T16:56:37.531Z,5.75
2022-10-14T16:59:05.734Z,4.57
2022-10-14T17:01:32.770Z,5.63
2022-10-14T17:03:59.174Z,4.60
2022-10-14T17:06:26.780Z,5.07
2022-10-14T17:08:53.574Z,4.70
2022-10-14T17:11:20.387Z,5.35
2022-10-14T17:13:46.736Z,4.65
2022-10-14T17:16:13.115Z,4.40
2022-10-14T17:18:39.496Z,4.97
2022-10-14T17:21:08.426Z,4.68
2022-10-14T17:23:35.935Z,3.85
2022-10-14T17:26:04.151Z,3.95
2022-10-14T17:28:31.729Z,4.53
2022-10-14T17:30:58.918Z,4.28
2022-10-14T17:33:26.057Z,3.65
2022-10-14T17:36:00.254Z,3.83
2022-10-14T17:38:28.328Z,3.88
2022-10-14T17:41:06.302Z,3.20
2022-10-14T17:43:33.332Z,3.58
2022-10-14T17:46:04.478Z,4.13
2022-10-14T17:48:32.420Z,4.07
2022-10-14T17:50:59.010Z,3.33
2022-10-14T17:53:25.389Z,3.00
2022-10-14T17:55:55.326Z,3.08
2022-10-14T17:58:23.935Z,3.22
2022-10-14T18:00:50.231Z,3.72
2022-10-14T18:03:16.548Z,3.17
2022-10-14T18:05:46.585Z,3.00
2022-10-14T18:08:17.561Z,3.13
2022-10-14T18:10:43.946Z,3.25
2022-10-14T18:13:10.243Z,3.08
2022-10-14T18:15:36.754Z,3.20
2022-10-14T18:18:03.130Z,2.77
2022-10-14T18:20:29.447Z,2.90
2022-10-14T18:22:55.910Z,3.10
2022-10-14T18:25:22.211Z,2.72
2022-10-14T18:27:48.864Z,3.20
2022-10-14T18:30:15.383Z,3.13
2022-10-14T18:32:41.699Z,2.38
2022-10-14T18:35:08.321Z,2.40
2022-10-14T18:37:34.679Z,2.97
2022-10-14T18:40:01.048Z,2.22
2022-10-14T18:42:27.537Z,2.20
2022-10-14T18:44:54.092Z,2.63
2022-10-14T18:47:20.492Z,2.17
2022-10-14T18:49:48.234Z,2.65
2022-10-14T18:52:14.542Z,3.00
2022-10-14T18:54:40.916Z,2.73
2022-10-14T18:57:07.367Z,3.10
2022-10-14T18:59:33.904Z,2.53
2022-10-14T19:02:01.448Z,2.13
2022-10-14T19:04:27.941Z,2.22
2022-10-14T19:06:54.288Z,2.00
2022-10-14T19:09:24.549Z,2.13
2022-10-14T19:11:52.492Z,2.25
2022-10-14T19:14:18.818Z,1.50
2022-10-14T19:16:47.379Z,2.35
2022-10-14T19:19:19.777Z,2.27
2022-10-14T19:21:49.682Z,1.90
2022-10-14T19:24:16.504Z,1.63
2022-10-14T19:26:45.339Z,2.42
2022-10-14T19:29:14.070Z,2.00
2022-10-14T19:31:41.580Z,1.63
2022-10-14T19:34:10.513Z,2.13
2022-10-14T19:36:39.219Z,2.08
2022-10-14T19:39:07.614Z,1.95
2022-10-14T19:41:38.302Z,1.73
2022-10-14T19:44:04.636Z,1.77
2022-10-14T19:46:30.966Z,1.83
2022-10-14T19:48:59.544Z,1.90
2022-10-14T19:51:26.243Z,1.65
2022-10-14T19:53:55.190Z,1.90
2022-10-14T19:56:21.836Z,1.83
2022-10-14T19:58:51.804Z,1.83
2022-10-14T20:01:19.404Z,1.70
2022-10-14T20:03:46.226Z,1.77
2022-10-14T20:06:13.406Z,1.55
2022-10-14T20:08:39.940Z,1.63
2022-10-14T20:11:09.122Z,2.08
2022-10-14T20:13:37.444Z,2.08
2022-10-14T20:16:05.267Z,1.80
2022-10-14T20:18:32.228Z,2.30
2022-10-14T20:21:01.102Z,1.70
2022-10-14T20:23:27.570Z,1.63
2022-10-14T20:26:01.509Z,1.98
2022-10-14T20:28:27.838Z,1.30
2022-10-14T20:30:54.236Z,1.50
2022-10-14T20:33:20.918Z,1.53
2022-10-14T20:35:47.304Z,1.73
2022-10-14T20:38:13.621Z,1.80
2022-10-14T20:40:39.961Z,1.85
2022-10-14T20:43:06.327Z,1.85
2022-10-14T20:45:32.623Z,1.90
2022-10-14T20:47:58.914Z,1.70
2022-10-14T20:50:25.280Z,1.85
2022-10-14T20:52:51.574Z,1.63
2022-10-14T20:55:17.887Z,1.65
2022-10-14T20:57:44.326Z,1.23
2022-10-14T21:00:11.141Z,1.52
2022-10-14T21:02:37.562Z,1.67
2022-10-14T21:05:04.122Z,1.65
2022-10-14T21:07:30.428Z,1.30
2022-10-14T21:09:56.751Z,1.10
2022-10-14T21:12:23.410Z,1.38
2022-10-14T21:14:49.902Z,1.15
2022-10-14T21:17:16.354Z,1.25
2022-10-14T21:19:42.654Z,1.23
2022-10-14T21:22:09.558Z,1.30
2022-10-14T21:24:36.167Z,1.20
2022-10-14T21:27:02.579Z,1.45
2022-10-14T21:29:28.929Z,0.93
2022-10-14T21:31:55.294Z,0.90
2022-10-14T21:34:24.615Z,1.20
2022-10-14T21:36:50.996Z,1.60
2022-10-14T21:39:18.332Z,1.30
2022-10-14T21:41:45.882Z,1.10
2022-10-14T21:44:17.942Z,1.10
2022-10-14T21:46:44.403Z,1.40
2022-10-14T21:49:10.787Z,1.50
2022-10-14T21:51:37.233Z,1.40
2022-10-14T21:54:04.164Z,1.27
2022-10-14T21:56:31.073Z,1.50
2022-10-14T21:58:57.872Z,1.20
2022-10-14T22:01:29.432Z,1.13
2022-10-14T22:03:58.915Z,1.60
2022-10-14T22:06:26.460Z,1.75
2022-10-14T22:08:55.505Z,1.35
2022-10-14T22:11:25.343Z,1.40
2022-10-14T22:13:52.847Z,1.08
2022-10-14T22:16:19.453Z,1.33
2022-10-14T22:18:47.396Z,1.17
2022-10-14T22:21:15.675Z,1.58
2022-10-14T22:23:42.053Z,1.40
2022-10-14T22:26:11.552Z,1.48
2022-10-14T22:28:38.234Z,1.63
2022-10-14T22:31:10.371Z,1.17
2022-10-14T22:33:38.736Z,1.10
2022-10-14T22:36:10.359Z,1.20
2022-10-14T22:38:38.053Z,1.42
2022-10-14T22:41:05.928Z,1.40
2022-10-14T22:43:32.977Z,1.10
2022-10-14T22:46:05.148Z,1.15
2022-10-14T22:48:32.218Z,1.30
2022-10-14T22:51:12.089Z,1.10
2022-10-14T22:53:40.643Z,1.42
2022-10-14T22:56:09.472Z,1.20
2022-10-14T22:58:35.974Z,1.02
2022-10-14T23:01:07.171Z,1.30
2022-10-14T23:03:34.665Z,1.20
2022-10-14T23:06:01.716Z,1.50
2022-10-14T23:08:28.011Z,1.45
2022-10-14T23:10:54.331Z,1.30
2022-10-14T23:13:20.665Z,1.00
2022-10-14T23:16:03.990Z,1.33
2022-10-14T23:18:33.061Z,1.40
2022-10-14T23:21:06.312Z,1.05
2022-10-14T23:23:32.623Z,1.17
2022-10-14T23:25:58.958Z,1.50
2022-10-14T23:28:26.331Z,1.10
2022-10-14T23:30:52.701Z,1.20
2022-10-14T23:33:19.161Z,1.27
2022-10-14T23:35:45.748Z,1.20
2022-10-14T23:38:12.575Z,1.30
2022-10-14T23:40:39.093Z,1.50
2022-10-14T23:43:05.393Z,1.33
2022-10-14T23:45:31.813Z,1.52
2022-10-14T23:47:58.120Z,1.13
2022-10-14T23:50:24.447Z,1.40
2022-10-14T23:52:50.762Z,1.05
2022-10-14T23:55:17.133Z,1.27
2022-10-14T23:57:43.562Z,1.13
